createdAt,value
2017-06-17T00:00:49.103Z,14.6
2017-06-17T00:01:48.914Z,14.6
2017-06-17T00:02:47.132Z,14.6
2017-06-17T00:03:46.861Z,14.6
2017-06-17T00:04:45.665Z,14.6
2017-06-17T00:05:45.399Z,14.6
2017-06-17T00:06:44.639Z,14.6
2017-06-17T00:07:43.869Z,14.5
2017-06-17T00:08:43.170Z,14.5
2017-06-17T00:09:42.399Z,14.5
2017-06-17T00:10:41.636Z,14.5
2017-06-17T00:11:40.864Z,14.5
2017-06-17T00:12:40.097Z,14.5
2017-06-17T00:13:39.324Z,14.4
2017-06-17T00:14:38.444Z,14.5
2017-06-17T00:15:37.702Z,14.5
2017-06-17T00:16:36.933Z,14.4
2017-06-17T00:17:36.431Z,14.4
2017-06-17T00:18:35.544Z,14.4
2017-06-17T00:21:33.052Z,14.4
2017-06-17T00:22:32.682Z,14.4
2017-06-17T00:23:31.911Z,14.4
2017-06-17T00:24:31.150Z,14.4
2017-06-17T00:25:30.378Z,14.4
2017-06-17T00:26:29.612Z,14.4
2017-06-17T00:27:28.723Z,14.4
2017-06-17T00:28:28.034Z,14.4
2017-06-17T00:29:27.270Z,14.4
2017-06-17T00:30:26.502Z,14.4
2017-06-17T00:31:25.996Z,14.4
2017-06-17T00:32:25.112Z,14.4
2017-06-17T00:33:24.349Z,14.3
2017-06-17T00:34:23.341Z,14.4
2017-06-17T00:35:22.841Z,14.3
2017-06-17T00:36:22.078Z,14.3
2017-06-17T00:37:21.381Z,14.3
2017-06-17T00:38:20.609Z,14.3
2017-06-17T00:40:19.237Z,14.3
2017-06-17T00:41:18.475Z,14.2
2017-06-17T00:42:17.706Z,14.3
2017-06-17T00:43:16.823Z,14.3
2017-06-17T00:44:16.053Z,14.3
2017-06-17T00:45:15.161Z,14.2
2017-06-17T00:46:14.397Z,14.2
2017-06-17T00:47:13.630Z,14.2
2017-06-17T00:48:13.362Z,14.2
2017-06-17T00:49:12.359Z,14.2
2017-06-17T00:50:11.475Z,14.2
2017-06-17T00:51:11.095Z,14.2
2017-06-17T00:52:10.212Z,14.2
2017-06-17T00:53:09.325Z,14.2
2017-06-17T00:54:08.557Z,14.1
2017-06-17T00:55:07.552Z,14.1
2017-06-17T00:56:07.052Z,14.1
2017-06-17T00:57:06.284Z,14.1
2017-06-17T00:58:05.351Z,14.1
2017-06-17T00:59:05.083Z,14.1
2017-06-17T01:00:04.314Z,14.1
2017-06-17T01:01:03.426Z,14.1
2017-06-17T01:02:02.650Z,14.1
2017-06-17T01:03:01.762Z,14
2017-06-17T01:04:00.943Z,14
2017-06-17T01:05:00.175Z,14
2017-06-17T01:05:59.397Z,14
2017-06-17T01:06:58.507Z,14
2017-06-17T01:07:58.244Z,14
2017-06-17T01:08:57.939Z,14
2017-06-17T01:09:56.545Z,14.1
2017-06-17T01:10:55.779Z,14
2017-06-17T01:11:54.847Z,14
2017-06-17T01:12:54.470Z,14
2017-06-17T01:13:53.698Z,14
2017-06-17T01:15:52.196Z,14
2017-06-17T01:16:51.530Z,13.9
2017-06-17T01:17:50.762Z,13.9
2017-06-17T01:18:49.992Z,13.9
2017-06-17T01:19:49.114Z,13.9
2017-06-17T01:20:48.423Z,13.9
2017-06-17T01:21:47.658Z,13.9
2017-06-17T01:22:46.892Z,13.9
2017-06-17T01:23:46.125Z,13.9
2017-06-17T01:24:45.246Z,13.8
2017-06-17T01:25:44.477Z,13.8
2017-06-17T01:26:43.708Z,13.8
2017-06-17T01:27:42.943Z,13.8
2017-06-17T01:28:42.172Z,13.8
2017-06-17T01:29:41.472Z,13.8
2017-06-17T01:30:40.700Z,13.8
2017-06-17T01:31:11.246Z,13.8
2017-06-17T01:31:41.668Z,13.8
2017-06-17T01:32:39.422Z,13.8
2017-06-17T01:33:38.651Z,13.8
2017-06-17T01:34:37.650Z,13.8
2017-06-17T01:35:36.766Z,13.8
2017-06-17T01:36:36.017Z,13.7
2017-06-17T01:37:35.640Z,13.7
2017-06-17T01:38:34.871Z,13.7
2017-06-17T01:39:34.100Z,13.7
2017-06-17T01:41:32.216Z,13.7
2017-06-17T01:42:31.829Z,13.6
2017-06-17T01:43:30.948Z,13.6
2017-06-17T01:44:30.198Z,13.6
2017-06-17T01:45:29.508Z,21.6
2017-06-17T01:46:28.821Z,13.6
2017-06-17T01:47:28.055Z,13.6
2017-06-17T01:48:27.043Z,13.5
2017-06-17T01:49:26.421Z,13.5
2017-06-17T01:50:25.533Z,13.5
2017-06-17T01:51:24.776Z,13.5
2017-06-17T01:52:24.015Z,13.5
2017-06-17T01:53:23.396Z,13.5
2017-06-17T01:54:22.510Z,13.5
2017-06-17T01:55:21.623Z,13.5
2017-06-17T01:56:20.853Z,13.5
2017-06-17T01:58:19.238Z,13.5
2017-06-17T01:59:18.947Z,13.5
2017-06-17T02:00:18.194Z,13.4
2017-06-17T02:01:17.305Z,13.4
2017-06-17T02:02:16.537Z,13.4
2017-06-17T02:03:15.765Z,13.4
2017-06-17T02:04:14.994Z,13.4
2017-06-17T02:05:14.228Z,13.3
2017-06-17T02:06:13.458Z,13.4
2017-06-17T02:07:12.572Z,13.4
2017-06-17T02:08:11.695Z,13.4
2017-06-17T02:10:10.312Z,13.4
2017-06-17T02:11:09.307Z,13.4
2017-06-17T02:12:08.925Z,13.4
2017-06-17T02:13:08.160Z,13.4
2017-06-17T02:14:07.390Z,13.4
2017-06-17T02:15:06.621Z,13.4
2017-06-17T02:17:05.582Z,13.4
2017-06-17T02:18:04.193Z,13.4
2017-06-17T02:19:03.578Z,13.4
2017-06-17T02:20:02.810Z,13.5
2017-06-17T02:21:02.106Z,13.5
2017-06-17T02:22:01.677Z,13.5
2017-06-17T02:23:00.292Z,13.5
2017-06-17T02:23:59.519Z,13.4
2017-06-17T02:25:58.568Z,13.4
2017-06-17T02:26:57.062Z,13.4
2017-06-17T02:27:56.676Z,13.4
2017-06-17T02:28:56.372Z,13.4
2017-06-17T02:29:55.094Z,13.4
2017-06-17T02:30:54.325Z,13.4
2017-06-17T02:31:53.557Z,13.4
2017-06-17T02:32:52.795Z,13.4
2017-06-17T02:33:51.910Z,13.4
2017-06-17T02:34:51.154Z,13.4
2017-06-17T02:36:49.662Z,13.4
2017-06-17T02:37:48.779Z,13.4
2017-06-17T02:38:48.392Z,13.4
2017-06-17T02:39:47.621Z,13.4
2017-06-17T02:40:46.849Z,13.4
2017-06-17T02:41:46.077Z,13.4
2017-06-17T02:42:45.307Z,13.4
2017-06-17T02:44:43.415Z,13.4
2017-06-17T02:45:43.081Z,13.4
2017-06-17T02:47:41.068Z,13.4
2017-06-17T02:48:40.364Z,13.4
2017-06-17T02:49:39.587Z,13.4
2017-06-17T02:50:38.873Z,13.4
2017-06-17T02:51:38.110Z,13.4
2017-06-17T02:52:37.331Z,13.3
2017-06-17T02:53:36.546Z,13.3
2017-06-17T02:54:35.764Z,13.3
2017-06-17T02:55:34.872Z,13.3
2017-06-17T02:56:34.120Z,13.3
2017-06-17T02:57:33.346Z,13.4
2017-06-17T02:58:32.657Z,13.4
2017-06-17T02:59:31.879Z,13.4
2017-06-17T03:00:30.985Z,13.4
2017-06-17T03:01:30.737Z,13.4
2017-06-17T03:02:29.861Z,13.4
2017-06-17T03:03:29.107Z,13.4
2017-06-17T03:04:28.330Z,13.3
2017-06-17T03:05:27.557Z,13.4
2017-06-17T03:06:26.665Z,13.3
2017-06-17T03:08:25.281Z,13.3
2017-06-17T03:09:24.501Z,13.3
2017-06-17T03:10:23.604Z,13.3
2017-06-17T03:11:22.473Z,13.3
2017-06-17T03:12:22.200Z,13.3
2017-06-17T03:13:21.425Z,13.3
2017-06-17T03:14:20.647Z,13.3
2017-06-17T03:15:19.748Z,13.3
2017-06-17T03:16:18.857Z,13.3
2017-06-17T03:18:17.896Z,13.3
2017-06-17T03:19:16.499Z,13.3
2017-06-17T03:20:15.723Z,13.3
2017-06-17T03:21:14.716Z,13.3
2017-06-17T03:22:14.264Z,13.3
2017-06-17T03:24:12.755Z,13.3
2017-06-17T03:25:12.006Z,13.3
2017-06-17T03:26:11.225Z,13.3
2017-06-17T03:27:10.485Z,13.3
2017-06-17T03:28:09.707Z,13.3
2017-06-17T03:29:08.812Z,13.2
2017-06-17T03:30:08.038Z,13.3
2017-06-17T03:31:07.262Z,13.3
2017-06-17T03:32:06.439Z,13.3
2017-06-17T03:33:05.659Z,13.3
2017-06-17T03:34:05.263Z,13.3
2017-06-17T03:35:04.484Z,13.3
2017-06-17T03:36:03.706Z,13.2
2017-06-17T03:37:02.934Z,13.2
2017-06-17T03:38:02.039Z,13.2
2017-06-17T03:39:01.258Z,13.2
2017-06-17T03:40:00.476Z,13.2
2017-06-17T03:40:59.578Z,13.2
2017-06-17T03:41:58.796Z,13.3
2017-06-17T03:42:58.094Z,13.3
2017-06-17T03:43:57.314Z,13.3
2017-06-17T03:44:56.540Z,13.2
2017-06-17T03:45:55.757Z,13.3
2017-06-17T03:46:54.858Z,13.3
2017-06-17T03:47:53.964Z,13.3
2017-06-17T03:48:53.699Z,13.3
2017-06-17T03:49:52.688Z,13.3
2017-06-17T03:50:51.671Z,13.3
2017-06-17T03:51:51.392Z,13.3
2017-06-17T03:52:50.381Z,13.3
2017-06-17T03:53:49.601Z,13.2
2017-06-17T03:54:48.827Z,13.3
2017-06-17T03:55:47.936Z,13.2
2017-06-17T03:56:47.156Z,13.3
2017-06-17T03:57:46.378Z,13.3
2017-06-17T03:59:44.872Z,13.3
2017-06-17T04:00:44.098Z,13.3
2017-06-17T04:01:43.317Z,13.3
2017-06-17T04:02:42.538Z,13.3
2017-06-17T04:03:41.758Z,13.3
2017-06-17T04:04:40.972Z,13.3
2017-06-17T04:05:40.193Z,13.3
2017-06-17T04:06:39.418Z,13.3
2017-06-17T04:07:38.636Z,13.3
2017-06-17T04:08:38.367Z,13.2
2017-06-17T04:09:37.587Z,13.2
2017-06-17T04:10:36.811Z,13.3
2017-06-17T04:11:36.029Z,13.2
2017-06-17T04:12:35.822Z,13.3
2017-06-17T04:13:33.924Z,13.2
2017-06-17T04:14:33.412Z,13.2
2017-06-17T04:15:32.631Z,13.3
2017-06-17T04:16:31.851Z,13.3
2017-06-17T04:17:31.075Z,13.3
2017-06-17T04:19:29.567Z,13.3
2017-06-17T04:20:28.789Z,13.3
2017-06-17T04:21:27.893Z,13.3
2017-06-17T04:22:27.117Z,13.3
2017-06-17T04:23:26.344Z,13.3
2017-06-17T04:24:25.831Z,13.3
2017-06-17T04:25:24.933Z,13.4
2017-06-17T04:26:24.032Z,13.3
2017-06-17T04:28:22.524Z,13.4
2017-06-17T04:29:21.757Z,13.3
2017-06-17T04:30:21.249Z,13.3
2017-06-17T04:31:20.546Z,13.3
2017-06-17T04:33:18.739Z,13.3
2017-06-17T04:34:17.957Z,13.4
2017-06-17T04:35:17.174Z,13.4
2017-06-17T04:36:16.397Z,13.4
2017-06-17T04:38:14.887Z,13.4
2017-06-17T04:39:14.108Z,13.4
2017-06-17T04:40:13.093Z,13.4
2017-06-17T04:41:12.817Z,13.4
2017-06-17T04:42:12.041Z,13.4
2017-06-17T04:43:11.262Z,13.4
2017-06-17T04:44:10.480Z,13.4
2017-06-17T04:45:09.591Z,13.4
2017-06-17T04:46:08.820Z,13.5
2017-06-17T04:47:07.929Z,13.5
2017-06-17T04:49:06.540Z,13.5
2017-06-17T04:50:05.524Z,13.5
2017-06-17T04:51:05.132Z,13.5
2017-06-17T04:52:04.237Z,13.5
2017-06-17T04:53:03.338Z,13.5
2017-06-17T04:54:02.560Z,13.5
2017-06-17T05:01:56.379Z,13.6
2017-06-17T05:05:53.265Z,13.6
2017-06-17T05:06:52.524Z,13.5
2017-06-17T05:07:51.750Z,13.5
2017-06-17T05:08:50.970Z,13.5
2017-06-17T05:09:50.208Z,13.5
2017-06-17T05:10:49.430Z,13.5
2017-06-17T05:11:48.651Z,13.5
2017-06-17T05:12:47.871Z,13.5
2017-06-17T05:13:47.167Z,13.6
2017-06-17T05:14:46.400Z,13.6
2017-06-17T05:16:45.011Z,13.6
2017-06-17T05:18:43.629Z,13.5
2017-06-17T05:19:42.910Z,13.5
2017-06-17T05:20:42.132Z,13.5
2017-06-17T05:21:41.351Z,13.5
2017-06-17T05:22:40.573Z,13.5
2017-06-17T05:23:39.874Z,13.5
2017-06-17T05:25:37.862Z,13.5
2017-06-17T05:26:37.588Z,13.5
2017-06-17T05:27:36.815Z,13.5
2017-06-17T05:28:36.034Z,13.5
2017-06-17T05:29:35.255Z,13.5
2017-06-17T05:30:34.481Z,13.6
2017-06-17T05:31:33.351Z,13.6
2017-06-17T05:32:32.579Z,13.5
2017-06-17T05:34:31.198Z,13.5
2017-06-17T05:35:30.307Z,13.6
2017-06-17T05:36:29.526Z,13.6
2017-06-17T05:37:28.748Z,13.6
2017-06-17T05:38:28.237Z,13.6
2017-06-17T05:39:27.341Z,13.6
2017-06-17T05:40:26.566Z,13.5
2017-06-17T05:42:25.177Z,13.5
2017-06-17T05:43:24.163Z,13.5
2017-06-17T05:46:22.042Z,13.5
2017-06-17T05:50:18.934Z,13.5
2017-06-17T05:51:18.217Z,13.5
2017-06-17T05:52:17.442Z,13.5
2017-06-17T05:54:16.054Z,13.5
2017-06-17T05:55:15.848Z,13.5
2017-06-17T05:56:14.565Z,13.5
2017-06-17T05:57:13.782Z,13.5
2017-06-17T05:58:12.890Z,13.5
2017-06-17T05:59:12.258Z,13.5
2017-06-17T06:00:11.241Z,13.5
2017-06-17T06:01:10.464Z,13.5
2017-06-17T06:02:09.573Z,13.6
2017-06-17T06:03:09.069Z,13.6
2017-06-17T06:04:08.296Z,13.6
2017-06-17T06:05:07.992Z,13.6
2017-06-17T06:07:06.107Z,13.7
2017-06-17T06:08:05.332Z,13.7
2017-06-17T06:10:03.708Z,13.7
2017-06-17T06:11:02.935Z,13.7
2017-06-17T06:12:02.161Z,13.7
2017-06-17T06:13:01.155Z,13.7
2017-06-17T06:14:00.376Z,13.7
2017-06-17T06:14:30.922Z,13.7
2017-06-17T06:15:01.454Z,13.7
2017-06-17T06:15:59.065Z,13.7
2017-06-17T06:16:58.343Z,13.7
2017-06-17T06:19:55.847Z,13.7
2017-06-17T06:20:54.956Z,13.7
2017-06-17T06:21:54.081Z,13.7
2017-06-17T06:22:53.806Z,13.7
2017-06-17T06:23:52.915Z,13.6
2017-06-17T06:24:52.133Z,13.6
2017-06-17T06:25:51.431Z,13.6
2017-06-17T06:26:50.657Z,13.7
2017-06-17T06:27:49.764Z,13.7
2017-06-17T06:28:48.986Z,13.7
2017-06-17T06:29:48.214Z,13.7
2017-06-17T06:30:47.441Z,13.8
2017-06-17T06:31:46.660Z,13.8
2017-06-17T06:32:46.159Z,13.7
2017-06-17T06:34:44.261Z,13.8
2017-06-17T06:35:43.989Z,13.8
2017-06-17T06:36:43.217Z,13.8
2017-06-17T06:37:42.442Z,13.8
2017-06-17T06:38:42.252Z,13.8
2017-06-17T06:39:40.467Z,13.8
2017-06-17T06:40:39.687Z,13.8
2017-06-17T06:41:39.201Z,13.8
2017-06-17T06:42:38.307Z,13.7
2017-06-17T06:43:08.858Z,13.7
2017-06-17T06:43:39.291Z,13.7
2017-06-17T06:44:09.594Z,13.7
2017-06-17T06:44:40.006Z,13.7
2017-06-17T06:45:10.425Z,13.7
2017-06-17T06:47:34.492Z,13.6
2017-06-17T06:48:33.714Z,13.6
2017-06-17T06:49:32.934Z,13.6
2017-06-17T06:50:32.156Z,13.6
2017-06-17T06:51:31.387Z,13.6
2017-06-17T06:52:30.648Z,13.6
2017-06-17T06:53:29.866Z,13.7
2017-06-17T06:54:29.092Z,13.7
2017-06-17T06:55:28.189Z,13.7
2017-06-17T06:56:27.799Z,13.7
2017-06-17T06:57:27.019Z,13.8
2017-06-17T06:58:26.117Z,13.8
2017-06-17T06:59:25.340Z,13.8
2017-06-17T07:00:24.559Z,13.8
2017-06-17T07:01:23.781Z,13.9
2017-06-17T07:02:23.421Z,13.9
2017-06-17T07:03:22.136Z,13.8
2017-06-17T07:04:21.744Z,13.8
2017-06-17T07:05:20.965Z,13.9
2017-06-17T07:06:20.195Z,13.9
2017-06-17T07:07:19.191Z,13.9
2017-06-17T07:08:18.415Z,14
2017-06-17T07:09:17.637Z,13.9
2017-06-17T07:10:16.859Z,14
2017-06-17T07:11:16.463Z,13.9
2017-06-17T07:12:15.741Z,13.9
2017-06-17T07:13:14.847Z,13.9
2017-06-17T07:15:13.462Z,13.9
2017-06-17T07:17:11.569Z,13.9
2017-06-17T07:18:11.171Z,13.9
2017-06-17T07:20:09.732Z,13.9
2017-06-17T07:21:08.455Z,13.9
2017-06-17T07:23:07.064Z,14
2017-06-17T07:24:06.173Z,14
2017-06-17T07:25:05.398Z,14.1
2017-06-17T07:26:05.008Z,14.1
2017-06-17T07:27:04.114Z,14.1
2017-06-17T07:28:03.333Z,14.1
2017-06-17T07:29:02.434Z,14.1
2017-06-17T07:30:01.656Z,14.1
2017-06-17T07:32:00.162Z,14.1
2017-06-17T07:32:59.382Z,14.1
2017-06-17T07:33:58.607Z,14.1
2017-06-17T07:34:58.211Z,14.2
2017-06-17T07:35:57.309Z,14.2
2017-06-17T07:36:56.526Z,14.2
2017-06-17T07:37:55.634Z,14.2
2017-06-17T07:38:55.122Z,14.2
2017-06-17T07:40:53.616Z,14.2
2017-06-17T07:41:52.845Z,14.1
2017-06-17T07:42:52.067Z,14.2
2017-06-17T07:44:50.669Z,14.2
2017-06-17T07:45:49.776Z,14.3
2017-06-17T07:46:49.075Z,14.3
2017-06-17T07:47:48.295Z,14.3
2017-06-17T07:48:47.517Z,14.3
2017-06-17T07:49:46.742Z,14.3
2017-06-17T07:50:45.963Z,14.3
2017-06-17T07:51:45.070Z,14.3
2017-06-17T07:52:44.177Z,14.3
2017-06-17T07:54:42.785Z,14.3
2017-06-17T07:55:42.271Z,14.4
2017-06-17T07:56:41.496Z,14.4
2017-06-17T07:57:40.600Z,14.4
2017-06-17T07:58:40.473Z,14.4
2017-06-17T07:59:39.193Z,14.4
2017-06-17T08:00:38.411Z,14.4
2017-06-17T08:01:37.518Z,14.4
2017-06-17T08:02:36.747Z,14.5
2017-06-17T08:03:35.965Z,14.5
2017-06-17T08:04:35.192Z,14.5
2017-06-17T08:05:34.999Z,14.5
2017-06-17T08:06:33.634Z,14.5
2017-06-17T08:07:33.814Z,14.6
2017-06-17T08:08:32.537Z,14.6
2017-06-17T08:09:31.756Z,14.6
2017-06-17T08:10:30.861Z,14.6
2017-06-17T08:11:30.081Z,14.7
2017-06-17T08:12:29.306Z,14.7
2017-06-17T08:13:28.420Z,14.8
2017-06-17T08:14:27.640Z,14.8
2017-06-17T08:16:26.247Z,14.9
2017-06-17T08:17:25.472Z,14.9
2017-06-17T08:18:24.573Z,14.9
2017-06-17T08:19:24.290Z,14.9
2017-06-17T08:20:23.455Z,14.9
2017-06-17T08:21:22.681Z,15
2017-06-17T08:22:21.899Z,15
2017-06-17T08:23:21.016Z,15
2017-06-17T08:24:20.240Z,15
2017-06-17T08:25:19.416Z,15
2017-06-17T08:26:19.029Z,15.1
2017-06-17T08:27:18.147Z,15.2
2017-06-17T08:28:17.368Z,15.2
2017-06-17T08:29:16.598Z,15.2
2017-06-17T08:30:15.710Z,15.2
2017-06-17T08:32:14.087Z,15.2
2017-06-17T08:33:13.583Z,15.2
2017-06-17T08:35:12.458Z,15.2
2017-06-17T08:37:10.440Z,15.2
2017-06-17T08:38:10.168Z,15.2
2017-06-17T08:39:09.270Z,15.3
2017-06-17T08:40:08.484Z,15.3
2017-06-17T08:41:07.704Z,15.3
2017-06-17T08:42:06.695Z,15.3
2017-06-17T08:43:06.493Z,15.4
2017-06-17T08:44:05.477Z,15.3
2017-06-17T08:45:04.970Z,15.4
2017-06-17T08:46:04.202Z,15.4
2017-06-17T08:47:03.424Z,15.5
2017-06-17T08:48:03.094Z,15.6
2017-06-17T08:49:01.760Z,15.6
2017-06-17T08:50:00.985Z,15.5
2017-06-17T08:50:31.524Z,15.5
2017-06-17T08:51:02.067Z,15.6
2017-06-17T08:51:59.670Z,15.6
2017-06-17T08:52:58.715Z,15.7
2017-06-17T08:53:58.436Z,15.8
2017-06-17T08:55:56.809Z,15.9
2017-06-17T08:56:56.023Z,15.8
2017-06-17T08:57:55.122Z,15.7
2017-06-17T08:58:54.223Z,15.6
2017-06-17T08:59:53.948Z,15.6
2017-06-17T09:00:53.328Z,15.5
2017-06-17T09:01:52.309Z,15.5
2017-06-17T09:02:51.541Z,15.6
2017-06-17T09:03:51.142Z,15.7
2017-06-17T09:04:50.364Z,15.8
2017-06-17T09:05:49.593Z,15.9
2017-06-17T09:06:48.884Z,15.7
2017-06-17T09:07:48.106Z,15.8
2017-06-17T09:08:47.329Z,15.7
2017-06-17T09:09:46.429Z,15.7
2017-06-17T09:10:46.047Z,15.7
2017-06-17T09:11:45.270Z,15.8
2017-06-17T09:12:15.687Z,15.8
2017-06-17T09:13:43.484Z,15.7
2017-06-17T09:14:42.706Z,15.8
2017-06-17T09:15:42.317Z,15.9
2017-06-17T09:16:41.534Z,16
2017-06-17T09:17:40.750Z,15.9
2017-06-17T09:18:39.970Z,15.9
2017-06-17T09:19:39.195Z,15.9
2017-06-17T09:20:38.380Z,16
2017-06-17T09:21:38.104Z,16
2017-06-17T09:22:37.212Z,16.1
2017-06-17T09:23:36.437Z,16.1
2017-06-17T09:24:35.715Z,16.1
2017-06-17T09:25:34.936Z,16.1
2017-06-17T09:26:34.038Z,16.2
2017-06-17T09:27:33.759Z,16.1
2017-06-17T09:29:31.750Z,16.1
2017-06-17T09:30:31.236Z,16.1
2017-06-17T09:31:30.603Z,16.2
2017-06-17T09:32:29.600Z,16.2
2017-06-17T09:33:29.328Z,16.1
2017-06-17T09:34:28.559Z,16.2
2017-06-17T09:35:27.933Z,16.3
2017-06-17T09:36:27.063Z,16.4
2017-06-17T09:37:26.177Z,16.4
2017-06-17T09:38:25.615Z,16.5
2017-06-17T09:39:24.702Z,16.5
2017-06-17T09:40:24.313Z,16.5
2017-06-17T09:41:23.305Z,16.4
2017-06-17T09:42:22.791Z,16.4
2017-06-17T09:43:22.013Z,16.4
2017-06-17T09:44:21.236Z,16.4
2017-06-17T09:45:20.460Z,16.3
2017-06-17T09:46:20.192Z,16.4
2017-06-17T09:47:19.426Z,16.5
2017-06-17T09:48:18.662Z,16.6
2017-06-17T09:49:17.879Z,16.6
2017-06-17T09:50:17.105Z,16.7
2017-06-17T09:51:16.332Z,16.7
2017-06-17T09:52:15.548Z,16.6
2017-06-17T09:53:15.212Z,16.4
2017-06-17T09:55:13.339Z,16.3
2017-06-17T09:56:12.943Z,16.4
2017-06-17T09:57:12.161Z,16.4
2017-06-17T09:58:11.532Z,16.4
2017-06-17T09:59:10.627Z,16.4
2017-06-17T10:01:09.240Z,16.3
2017-06-17T10:02:08.471Z,16.3
2017-06-17T10:03:08.082Z,16.2
2017-06-17T10:04:06.890Z,16.2
2017-06-17T10:05:06.412Z,16.2
2017-06-17T10:06:06.020Z,16.3
2017-06-17T10:07:04.832Z,16.3
2017-06-17T10:08:04.557Z,16.3
2017-06-17T10:09:03.541Z,16.3
2017-06-17T10:10:03.033Z,16.4
2017-06-17T10:11:02.419Z,16.6
2017-06-17T10:13:01.069Z,16.8
2017-06-17T10:14:00.172Z,16.8
2017-06-17T10:14:59.166Z,16.9
2017-06-17T10:15:59.467Z,17
2017-06-17T10:16:58.184Z,17
2017-06-17T10:17:57.406Z,17.1
2017-06-17T10:18:56.505Z,17.1
2017-06-17T10:19:55.728Z,17
2017-06-17T10:20:55.220Z,16.8
2017-06-17T10:21:25.521Z,16.8
2017-06-17T10:21:55.940Z,16.8
2017-06-17T10:22:26.299Z,16.8
2017-06-17T10:22:56.831Z,16.8
2017-06-17T10:23:53.184Z,16.8
2017-06-17T10:24:52.405Z,17
2017-06-17T10:26:50.898Z,17
2017-06-17T10:27:50.119Z,17
2017-06-17T10:28:49.217Z,17.2
2017-06-17T10:29:48.946Z,17.2
2017-06-17T10:30:48.056Z,17.2
2017-06-17T10:31:47.306Z,17.1
2017-06-17T10:32:46.616Z,17.2
2017-06-17T10:33:46.223Z,17.2
2017-06-17T10:34:45.441Z,17.2
2017-06-17T10:35:44.549Z,17.2
2017-06-17T10:36:44.273Z,17.3
2017-06-17T10:37:43.958Z,17.4
2017-06-17T10:38:42.600Z,17.5
2017-06-17T10:39:41.658Z,17.6
2017-06-17T10:41:40.791Z,17.7
2017-06-17T10:42:40.015Z,17.7
2017-06-17T10:43:39.117Z,17.6
2017-06-17T10:44:38.344Z,17.5
2017-06-17T10:45:37.567Z,17.5
2017-06-17T10:46:37.174Z,17.5
2017-06-17T10:47:36.622Z,17.5
2017-06-17T10:48:35.863Z,17.6
2017-06-17T10:49:34.968Z,17.6
2017-06-17T10:50:34.068Z,17.7
2017-06-17T10:51:33.789Z,17.7
2017-06-17T10:52:33.277Z,17.7
2017-06-17T10:53:32.377Z,17.6
2017-06-17T10:54:31.883Z,17.5
2017-06-17T10:55:31.099Z,17.6
2017-06-17T10:56:30.318Z,17.5
2017-06-17T10:57:29.418Z,17.7
2017-06-17T10:58:29.024Z,17.8
2017-06-17T10:59:28.244Z,17.8
2017-06-17T11:00:27.463Z,17.9
2017-06-17T11:01:26.662Z,17.9
2017-06-17T11:02:26.393Z,18
2017-06-17T11:03:25.618Z,17.9
2017-06-17T11:04:25.412Z,17.7
2017-06-17T11:05:24.127Z,17.6
2017-06-17T11:06:23.616Z,17.6
2017-06-17T11:07:22.717Z,17.6
2017-06-17T11:08:21.938Z,17.7
2017-06-17T11:09:21.657Z,17.5
2017-06-17T11:10:20.881Z,17.6
2017-06-17T11:11:20.109Z,17.5
2017-06-17T11:12:19.330Z,17.4
2017-06-17T11:13:18.433Z,17.4
2017-06-17T11:14:18.165Z,17.4
2017-06-17T11:15:17.386Z,17.4
2017-06-17T11:16:16.765Z,17.5
2017-06-17T11:17:16.443Z,17.6
2017-06-17T11:18:15.045Z,17.7
2017-06-17T11:19:14.652Z,18
2017-06-17T11:20:13.824Z,18.1
2017-06-17T11:21:13.431Z,18.2
2017-06-17T11:23:11.803Z,18.7
2017-06-17T11:24:11.292Z,18.8
2017-06-17T11:25:10.514Z,18.7
2017-06-17T11:26:09.738Z,18.6
2017-06-17T11:27:09.478Z,18.5
2017-06-17T11:28:08.594Z,18.5
2017-06-17T11:29:07.805Z,18.4
2017-06-17T11:30:07.412Z,18.4
2017-06-17T11:31:06.640Z,18.3
2017-06-17T11:33:05.138Z,18.1
2017-06-17T11:36:03.142Z,18.1
2017-06-17T11:37:02.750Z,18.2
2017-06-17T11:38:01.918Z,18.5
2017-06-17T11:39:01.103Z,18.5
2017-06-17T11:40:59.715Z,18.6
2017-06-17T11:41:58.964Z,18.9
2017-06-17T11:42:58.450Z,18.6
2017-06-17T11:43:58.050Z,18.5
2017-06-17T11:44:56.949Z,18.4
2017-06-17T11:45:56.312Z,18.5
2017-06-17T11:46:56.042Z,18.5
2017-06-17T11:47:55.151Z,18.5
2017-06-17T11:48:54.759Z,18.3
2017-06-17T11:49:53.983Z,18.1
2017-06-17T11:50:53.099Z,18
2017-06-17T11:51:52.711Z,18.3
2017-06-17T11:52:51.932Z,18.4
2017-06-17T11:53:51.426Z,18.6
2017-06-17T11:54:50.614Z,18.9
2017-06-17T11:55:49.837Z,19.1
2017-06-17T11:56:49.557Z,19
2017-06-17T11:57:48.659Z,19.3
2017-06-17T11:58:48.150Z,19.2
2017-06-17T11:59:47.386Z,19.2
2017-06-17T12:00:46.607Z,19.2
2017-06-17T12:02:45.611Z,19.5
2017-06-17T12:03:44.835Z,19.2
2017-06-17T12:04:44.058Z,19.4
2017-06-17T12:05:43.665Z,19.5
2017-06-17T12:06:42.891Z,19.5
2017-06-17T12:07:41.998Z,19.7
2017-06-17T12:08:41.728Z,19.9
2017-06-17T12:10:40.340Z,19.5
2017-06-17T12:11:39.446Z,19.5
2017-06-17T12:12:39.169Z,19.4
2017-06-17T12:13:38.450Z,19.2
2017-06-17T12:14:37.679Z,19.1
2017-06-17T12:15:36.783Z,19.1
2017-06-17T12:16:36.507Z,19
2017-06-17T12:18:34.884Z,18.8
2017-06-17T12:19:34.610Z,18.8
2017-06-17T12:20:33.830Z,18.7
2017-06-17T12:21:32.944Z,18.6
2017-06-17T12:22:32.745Z,18.5
2017-06-17T12:23:32.033Z,18.4
2017-06-17T12:24:31.023Z,18.8
2017-06-17T12:25:30.515Z,19.2
2017-06-17T12:26:29.740Z,19.3
2017-06-17T12:27:29.470Z,19.3
2017-06-17T12:28:28.451Z,19.7
2017-06-17T12:29:28.060Z,19.6
2017-06-17T12:30:27.343Z,19.7
2017-06-17T12:31:26.565Z,19.9
2017-06-17T12:32:25.855Z,20.4
2017-06-17T12:33:25.581Z,20.3
2017-06-17T12:34:24.684Z,20.3
2017-06-17T12:35:24.292Z,20.1
2017-06-17T12:36:24.080Z,19.5
2017-06-17T12:37:22.686Z,19.6
2017-06-17T12:38:22.175Z,19.7
2017-06-17T12:38:52.716Z,19.7
2017-06-17T12:39:23.201Z,20.2
2017-06-17T12:39:53.738Z,20.2
2017-06-17T12:41:20.141Z,20.4
2017-06-17T12:42:19.869Z,20.5
2017-06-17T12:43:19.094Z,20.7
2017-06-17T12:44:18.230Z,20.8
2017-06-17T12:45:17.955Z,20.1
2017-06-17T12:46:17.184Z,20.2
2017-06-17T12:47:16.404Z,20.6
2017-06-17T12:48:16.132Z,20.6
2017-06-17T12:49:14.882Z,20.7
2017-06-17T12:50:14.609Z,20.8
2017-06-17T12:51:14.220Z,20.6
2017-06-17T12:52:13.517Z,20.5
2017-06-17T12:53:12.739Z,20.4
2017-06-17T12:54:11.977Z,20.5
2017-06-17T12:55:11.587Z,20.3
2017-06-17T12:56:10.812Z,20.3
2017-06-17T12:57:10.545Z,20.2
2017-06-17T12:58:09.765Z,20.6
2017-06-17T12:59:08.986Z,20.5
2017-06-17T13:00:09.159Z,20.6
2017-06-17T13:00:39.195Z,20.6
2017-06-17T13:01:09.728Z,20.8
2017-06-17T13:02:07.441Z,20.7
2017-06-17T13:03:06.548Z,20.5
2017-06-17T13:04:06.154Z,20.7
2017-06-17T13:05:05.138Z,20.9
2017-06-17T13:06:04.638Z,21
2017-06-17T13:07:04.132Z,21
2017-06-17T13:08:03.358Z,20.9
2017-06-17T13:09:02.966Z,20.4
2017-06-17T13:10:02.068Z,20.1
2017-06-17T13:11:01.452Z,20.1
2017-06-17T13:12:01.056Z,20.1
2017-06-17T13:14:00.168Z,19.8
2017-06-17T13:14:59.387Z,19.6
2017-06-17T13:15:58.519Z,19.9
2017-06-17T13:16:58.126Z,20.3
2017-06-17T13:17:57.616Z,20.6
2017-06-17T13:18:56.599Z,20.6
2017-06-17T13:19:56.320Z,20.5
2017-06-17T13:20:55.419Z,20.4
2017-06-17T13:21:55.380Z,20.4
2017-06-17T13:22:54.368Z,20.2
2017-06-17T13:23:53.855Z,20.2
2017-06-17T13:24:53.022Z,20.2
2017-06-17T13:25:52.754Z,20.1
2017-06-17T13:26:51.742Z,19.9
2017-06-17T13:27:51.480Z,19.9
2017-06-17T13:28:50.586Z,19.9
2017-06-17T13:29:50.313Z,19.9
2017-06-17T13:30:50.000Z,19.8
2017-06-17T13:31:49.116Z,19.7
2017-06-17T13:32:48.232Z,19.9
2017-06-17T13:33:47.600Z,19.8
2017-06-17T13:34:47.210Z,19.9
2017-06-17T13:35:46.432Z,20.2
2017-06-17T13:37:45.631Z,20.8
2017-06-17T13:38:44.737Z,20.5
2017-06-17T13:39:43.845Z,20.6
2017-06-17T13:40:43.575Z,20.2
2017-06-17T13:41:42.802Z,20.1
2017-06-17T13:42:42.022Z,20
2017-06-17T13:43:41.741Z,20.2
2017-06-17T13:44:40.842Z,20.6
2017-06-17T13:45:39.941Z,20.5
2017-06-17T13:46:39.668Z,20.6
2017-06-17T13:47:38.892Z,20.9
2017-06-17T13:48:38.499Z,21.1
2017-06-17T13:49:37.725Z,21.2
2017-06-17T13:50:37.338Z,21.2
2017-06-17T13:51:36.991Z,21.5
2017-06-17T13:52:36.211Z,21.3
2017-06-17T13:53:35.386Z,21.4
2017-06-17T13:54:35.007Z,21.2
2017-06-17T13:55:34.233Z,21.5
2017-06-17T13:56:33.247Z,21.7
2017-06-17T13:58:32.357Z,21.2
2017-06-17T13:59:31.580Z,21.4
2017-06-17T14:00:31.319Z,21.7
2017-06-17T14:01:30.551Z,21.7
2017-06-17T14:02:29.831Z,21.6
2017-06-17T14:03:29.432Z,21.6
2017-06-17T14:04:29.221Z,21.5
2017-06-17T14:05:27.947Z,21.1
2017-06-17T14:06:27.557Z,20.8
2017-06-17T14:07:27.167Z,20.7
2017-06-17T14:08:26.457Z,20.5
2017-06-17T14:09:25.600Z,20.6
2017-06-17T14:10:25.329Z,20.7
2017-06-17T14:11:24.317Z,21
2017-06-17T14:12:23.930Z,21.1
2017-06-17T14:13:23.717Z,21.5
2017-06-17T14:14:22.825Z,21
2017-06-17T14:15:21.815Z,21
2017-06-17T14:16:21.546Z,21
2017-06-17T14:17:20.836Z,21
2017-06-17T14:18:20.447Z,20.5
2017-06-17T14:19:19.552Z,20.5
2017-06-17T14:20:19.284Z,20.5